Time;durP1;ratioP1;P1;durP2;ratioP2;P2;SDS_P1;SDS_P2;PMS_P1;PMS_P2;Temp;Humidity;BMP_temperature;BMP_pressure;BME280_temperature;BME280_humidity;BME280_pressure;Samples;Min_cycle;Max_cycle;Signal;HPM_P1;HPM_P2
2021/04/26 00:00:36;;;;;;;10.70;2.30;;;;;;;;;;12876730;23;20508;-82
2021/04/26 00:05:38;;;;;;;8.20;2.33;;;;;;;;;;12864807;22;20230;-82
2021/04/26 00:10:41;;;;;;;6.47;2.10;;;;;;;;;;12862857;23;20186;-82
2021/04/26 00:15:43;;;;;;;4.80;1.97;;;;;;;;;;12858400;23;20179;-82
2021/04/26 00:20:45;;;;;;;6.43;2.00;;;;;;;;;;12861372;23;20695;-83
2021/04/26 00:25:48;;;;;;;6.90;2.17;;;;;;;;;;12863562;23;20198;-82
2021/04/26 00:30:50;;;;;;;8.97;2.20;;;;;;;;;;12854912;23;20889;-82
2021/04/26 00:35:52;;;;;;;7.13;2.10;;;;;;;;;;12861700;23;20431;-82
2021/04/26 00:40:55;;;;;;;7.77;2.17;;;;;;;;;;12881345;23;20218;-82
2021/04/26 00:45:57;;;;;;;9.03;2.20;;;;;;;;;;12855895;23;20660;-82
2021/04/26 00:50:59;;;;;;;3.70;1.80;;;;;;;;;;12865013;23;20242;-82
2021/04/26 00:56:03;;;;;;;9.10;2.20;;;;;;;;;;12862511;23;20179;-82
2021/04/26 01:01:05;;;;;;;7.03;1.90;;;;;;;;;;12880911;22;20179;-82
2021/04/26 01:06:07;;;;;;;7.33;2.10;;;;;;;;;;12861552;23;20202;-83
2021/04/26 01:11:10;;;;;;;8.00;2.17;;;;;;;;;;12859351;23;20281;-82
2021/04/26 01:16:14;;;;;;;4.00;1.80;;;;;;;;;;12854035;23;20637;-81
2021/04/26 01:21:31;;;;;;;5.50;2.00;;;;;;;;;;12861709;23;20661;-82
2021/04/26 01:26:37;;;;;;;6.87;2.27;;;;;;;;;;12799609;23;20178;-82
2021/04/26 01:31:45;;;;;;;5.53;2.00;;;;;;;;;;12856310;23;20870;-82
2021/04/26 01:36:48;;;;;;;7.23;2.13;;;;;;;;;;12861431;23;20237;-81
2021/04/26 01:41:50;;;;;;;7.37;2.10;;;;;;;;;;12858788;23;20657;-81
2021/04/26 01:46:52;;;;;;;5.10;2.00;;;;;;;;;;12853643;23;20298;-83
2021/04/26 01:51:56;;;;;;;7.77;2.40;;;;;;;;;;12860700;23;20226;-83
2021/04/26 01:56:59;;;;;;;6.87;2.17;;;;;;;;;;12879358;23;20190;-84
2021/04/26 02:02:04;;;;;;;7.53;1.80;;;;;;;;;;12854472;22;20753;-82
2021/04/26 02:07:07;;;;;;;7.53;2.10;;;;;;;;;;12857062;23;20171;-81
2021/04/26 02:12:10;;;;;;;8.37;2.13;;;;;;;;;;12878610;23;20891;-82
2021/04/26 02:17:13;;;;;;;7.57;2.27;;;;;;;;;;12854010;23;21052;-81
2021/04/26 02:22:16;;;;;;;5.70;2.00;;;;;;;;;;12856544;23;20632;-81
2021/04/26 02:27:18;;;;;;;7.77;2.00;;;;;;;;;;12852557;23;20183;-81
2021/04/26 02:32:23;;;;;;;5.67;2.00;;;;;;;;;;12855220;23;20734;-82
2021/04/26 02:37:33;;;;;;;5.70;2.07;;;;;;;;;;12855662;23;20245;-80
2021/04/26 02:42:37;;;;;;;4.97;1.90;;;;;;;;;;12855257;23;20209;-81
2021/04/26 02:47:40;;;;;;;5.80;1.90;;;;;;;;;;12852664;23;20176;-81
2021/04/26 02:52:45;;;;;;;9.53;2.00;;;;;;;;;;12882019;23;20229;-83
2021/04/26 02:57:47;;;;;;;3.37;1.77;;;;;;;;;;12857093;23;20426;-82
2021/04/26 03:02:50;;;;;;;5.27;2.20;;;;;;;;;;12859078;22;20281;-82
2021/04/26 03:07:53;;;;;;;6.23;1.90;;;;;;;;;;12861100;23;20241;-81
2021/04/26 03:12:56;;;;;;;4.77;1.90;;;;;;;;;;12858631;23;20249;-81
2021/04/26 03:18:00;;;;;;;5.37;1.83;;;;;;;;;;12857356;23;20579;-81
2021/04/26 03:23:03;;;;;;;6.93;2.13;;;;;;;;;;12861089;23;20187;-81
2021/04/26 03:28:05;;;;;;;4.93;2.10;;;;;;;;;;12857903;23;20180;-81
2021/04/26 03:33:09;;;;;;;7.83;2.00;;;;;;;;;;12860789;23;20230;-81
2021/04/26 03:38:12;;;;;;;5.67;2.00;;;;;;;;;;12858154;23;20187;-82
2021/04/26 03:43:14;;;;;;;3.40;1.60;;;;;;;;;;12858998;23;20632;-81
2021/04/26 03:48:16;;;;;;;8.13;1.97;;;;;;;;;;12861572;23;20209;-81
2021/04/26 03:53:19;;;;;;;9.07;1.90;;;;;;;;;;12863658;23;20580;-81
2021/04/26 03:58:21;;;;;;;5.97;2.00;;;;;;;;;;12860905;23;20789;-83
2021/04/26 04:03:23;;;;;;;6.20;1.80;;;;;;;;;;12859778;22;20195;-83
2021/04/26 04:08:26;;;;;;;5.70;2.30;;;;;;;;;;12860161;23;20183;-81
2021/04/26 04:13:28;;;;;;;6.00;1.90;;;;;;;;;;12854370;23;20755;-83
2021/04/26 04:18:30;;;;;;;7.27;2.20;;;;;;;;;;12860277;23;20183;-83
2021/04/26 04:23:32;;;;;;;7.17;2.30;;;;;;;;;;12861106;23;20199;-85
2021/04/26 04:28:34;;;;;;;7.60;2.43;;;;;;;;;;12882262;23;20193;-77
2021/04/26 04:33:36;;;;;;;5.23;2.27;;;;;;;;;;12857507;23;20676;-83
2021/04/26 04:38:39;;;;;;;7.33;2.07;;;;;;;;;;12863813;23;20183;-83
2021/04/26 04:43:41;;;;;;;6.37;2.20;;;;;;;;;;12855975;23;20175;-78
2021/04/26 04:48:43;;;;;;;7.07;2.20;;;;;;;;;;12857512;23;20179;-79
2021/04/26 04:53:46;;;;;;;9.17;2.87;;;;;;;;;;12856989;23;20215;-77
2021/04/26 04:58:51;;;;;;;6.23;2.40;;;;;;;;;;12853939;23;21031;-79
2021/04/26 05:03:53;;;;;;;6.37;2.67;;;;;;;;;;12858394;22;20221;-79
2021/04/26 05:08:57;;;;;;;6.20;2.47;;;;;;;;;;12859803;23;20221;-78
2021/04/26 05:14:00;;;;;;;5.13;2.17;;;;;;;;;;12877230;23;20293;-83
2021/04/26 05:19:02;;;;;;;7.93;2.27;;;;;;;;;;12861395;23;20179;-80
2021/04/26 05:24:06;;;;;;;9.93;2.40;;;;;;;;;;12881111;23;20182;-77
2021/04/26 05:29:08;;;;;;;5.50;2.30;;;;;;;;;;12858982;23;20985;-87
2021/04/26 05:34:10;;;;;;;7.33;2.40;;;;;;;;;;12882456;23;20234;-78
2021/04/26 05:39:13;;;;;;;6.50;2.40;;;;;;;;;;12861422;23;20602;-78
2021/04/26 05:44:15;;;;;;;8.07;2.10;;;;;;;;;;12855634;23;20258;-77
2021/04/26 05:49:17;;;;;;;7.13;2.27;;;;;;;;;;12859436;23;20501;-77
2021/04/26 05:54:20;;;;;;;6.10;2.30;;;;;;;;;;12860113;23;20206;-78
2021/04/26 05:59:22;;;;;;;5.63;2.10;;;;;;;;;;12878303;23;20555;-77
2021/04/26 06:04:24;;;;;;;7.80;2.27;;;;;;;;;;12859718;22;20205;-77
2021/04/26 06:09:27;;;;;;;6.20;2.00;;;;;;;;;;12861764;23;20175;-77
2021/04/26 06:14:29;;;;;;;7.83;2.33;;;;;;;;;;12857342;23;20207;-78
2021/04/26 06:19:31;;;;;;;5.80;2.03;;;;;;;;;;12862800;23;20171;-78
2021/04/26 06:24:34;;;;;;;9.83;2.30;;;;;;;;;;12859926;23;20517;-78
2021/04/26 06:29:36;;;;;;;7.07;2.17;;;;;;;;;;12860944;23;20178;-78
2021/04/26 06:34:38;;;;;;;8.43;2.40;;;;;;;;;;12864946;23;21032;-78
2021/04/26 06:39:42;;;;;;;6.20;2.50;;;;;;;;;;12863978;23;20735;-78
2021/04/26 06:44:44;;;;;;;4.70;2.00;;;;;;;;;;12865896;23;20956;-79
2021/04/26 06:49:48;;;;;;;4.53;2.00;;;;;;;;;;12864848;23;20179;-79
2021/04/26 06:54:51;;;;;;;5.50;2.37;;;;;;;;;;12866123;23;20218;-77
2021/04/26 06:59:53;;;;;;;5.17;2.10;;;;;;;;;;12859323;23;20899;-79
2021/04/26 07:04:55;;;;;;;12.23;2.23;;;;;;;;;;12866181;22;20553;-78
2021/04/26 07:09:59;;;;;;;6.37;2.10;;;;;;;;;;12864203;23;20172;-79
2021/04/26 07:15:02;;;;;;;7.57;1.97;;;;;;;;;;12861181;23;20611;-79
2021/04/26 07:20:06;;;;;;;6.33;1.80;;;;;;;;;;12861518;23;20182;-80
2021/04/26 07:25:10;;;;;;;5.20;1.70;;;;;;;;;;12865005;23;20183;-80
2021/04/26 07:30:13;;;;;;;4.23;1.93;;;;;;;;;;12860260;23;20203;-79
2021/04/26 07:35:16;;;;;;;5.93;1.93;;;;;;;;;;12865140;23;20207;-79
2021/04/26 07:40:19;;;;;;;4.53;1.80;;;;;;;;;;12861968;23;20928;-79
2021/04/26 07:45:21;;;;;;;5.17;1.53;;;;;;;;;;12860036;23;20577;-79
2021/04/26 07:50:25;;;;;;;4.93;2.27;;;;;;;;;;12864199;23;20175;-79
2021/04/26 07:55:29;;;;;;;8.40;2.17;;;;;;;;;;12863062;23;20213;-79
2021/04/26 08:00:36;;;;;;;5.40;2.00;;;;;;;;;;12855737;23;20570;-80
2021/04/26 08:05:38;;;;;;;4.87;2.03;;;;;;;;;;12884415;22;20249;-79
2021/04/26 08:10:41;;;;;;;3.67;1.80;;;;;;;;;;12859038;23;20538;-79
2021/04/26 08:15:43;;;;;;;2.63;1.60;;;;;;;;;;12855289;23;20568;-80
2021/04/26 08:20:45;;;;;;;5.37;2.10;;;;;;;;;;12857122;23;20172;-79
2021/04/26 08:25:48;;;;;;;4.87;2.10;;;;;;;;;;12858938;23;20175;-79
2021/04/26 08:30:51;;;;;;;3.57;1.97;;;;;;;;;;12852332;23;20179;-79
2021/04/26 08:35:54;;;;;;;2.97;1.70;;;;;;;;;;12859626;23;20426;-79
2021/04/26 08:40:56;;;;;;;5.90;1.97;;;;;;;;;;12877970;23;20176;-79
2021/04/26 08:46:00;;;;;;;5.23;1.93;;;;;;;;;;12854938;23;20210;-79
2021/04/26 08:51:05;;;;;;;5.63;1.70;;;;;;;;;;12882166;23;20177;-79
2021/04/26 08:56:08;;;;;;;3.37;1.80;;;;;;;;;;12858627;23;20564;-79
2021/04/26 09:01:10;;;;;;;6.10;1.90;;;;;;;;;;12851151;22;20788;-78
2021/04/26 09:06:12;;;;;;;8.27;1.93;;;;;;;;;;12877100;23;20717;-78
2021/04/26 09:11:15;;;;;;;6.23;2.13;;;;;;;;;;12859110;23;20680;-79
2021/04/26 09:16:20;;;;;;;6.03;2.00;;;;;;;;;;12853872;23;20277;-79
2021/04/26 09:21:27;;;;;;;4.53;2.07;;;;;;;;;;12882658;23;20254;-79
2021/04/26 09:26:50;;;;;;;6.57;1.90;;;;;;;;;;12858047;23;20548;-80
2021/04/26 09:31:59;;;;;;;6.70;2.20;;;;;;;;;;12852662;23;20498;-80
2021/04/26 09:37:19;;;;;;;5.37;2.27;;;;;;;;;;12857936;23;20187;-80
2021/04/26 09:42:42;;;;;;;5.93;2.33;;;;;;;;;;12876167;23;20263;-79
2021/04/26 09:47:44;;;;;;;6.47;2.10;;;;;;;;;;12858286;23;20175;-81
2021/04/26 09:53:05;;;;;;;7.50;2.37;;;;;;;;;;12882020;23;20285;-81
2021/04/26 09:58:08;;;;;;;7.70;2.20;;;;;;;;;;12873744;23;20658;-81
2021/04/26 10:03:11;;;;;;;4.77;2.40;;;;;;;;;;12858175;22;20265;-81
2021/04/26 10:08:14;;;;;;;5.80;2.20;;;;;;;;;;12882673;23;20266;-80
2021/04/26 10:13:21;;;;;;;7.33;2.43;;;;;;;;;;12860939;23;20225;-81
2021/04/26 10:18:27;;;;;;;7.67;2.70;;;;;;;;;;12876941;23;21080;-80
2021/04/26 10:23:40;;;;;;;7.40;2.30;;;;;;;;;;12880810;23;20639;-80
2021/04/26 10:28:46;;;;;;;5.10;2.57;;;;;;;;;;12877468;23;20243;-81
2021/04/26 10:34:05;;;;;;;7.47;2.30;;;;;;;;;;12883248;23;20198;-81
2021/04/26 10:39:09;;;;;;;7.90;2.53;;;;;;;;;;12865428;23;20571;-79
2021/04/26 10:44:13;;;;;;;5.03;2.63;;;;;;;;;;12856485;23;20179;-79
2021/04/26 10:49:21;;;;;;;6.13;2.30;;;;;;;;;;12866538;23;20198;-79
2021/04/26 10:54:40;;;;;;;7.37;2.30;;;;;;;;;;12861795;23;20962;-78
2021/04/26 10:59:45;;;;;;;4.63;2.40;;;;;;;;;;12879998;23;20655;-79
2021/04/26 11:05:03;;;;;;;4.67;2.23;;;;;;;;;;12864202;22;20203;-78
2021/04/26 11:10:19;;;;;;;6.30;2.40;;;;;;;;;;12864141;23;20653;-78
2021/04/26 11:15:23;;;;;;;6.13;2.73;;;;;;;;;;12859379;23;20217;-81
2021/04/26 11:20:26;;;;;;;7.20;2.30;;;;;;;;;;12865468;23;20171;-81
2021/04/26 11:25:32;;;;;;;6.90;2.47;;;;;;;;;;12864406;23;20247;-80
2021/04/26 11:30:36;;;;;;;6.53;2.20;;;;;;;;;;12878878;23;20570;-79
2021/04/26 11:35:57;;;;;;;4.50;2.30;;;;;;;;;;12865042;23;20230;-79
2021/04/26 11:41:00;;;;;;;9.67;2.70;;;;;;;;;;12883395;23;20178;-80
2021/04/26 11:46:03;;;;;;;5.80;2.70;;;;;;;;;;12854432;23;20233;-79
2021/04/26 11:51:06;;;;;;;6.30;2.80;;;;;;;;;;12885732;23;20202;-79
2021/04/26 11:56:12;;;;;;;5.47;2.43;;;;;;;;;;12859869;23;20261;-79
2021/04/26 12:01:16;;;;;;;4.17;2.03;;;;;;;;;;12858116;22;21018;-78
2021/04/26 12:06:18;;;;;;;7.43;2.37;;;;;;;;;;12863208;23;20201;-78
2021/04/26 12:11:21;;;;;;;6.67;2.13;;;;;;;;;;12862914;23;20502;-78
2021/04/26 12:16:27;;;;;;;5.27;2.10;;;;;;;;;;12857929;23;20538;-78
2021/04/26 12:21:29;;;;;;;5.73;2.10;;;;;;;;;;12862201;23;20229;-79
2021/04/26 12:37:01;;;;;;;6.90;2.50;;;;;;;;;;12796008;23;20620;-80
2021/04/26 12:42:10;;;;;;;5.07;2.00;;;;;;;;;;12817681;23;20174;-79
2021/04/26 12:47:20;;;;;;;5.30;2.07;;;;;;;;;;12799383;23;20176;-78
2021/04/26 12:52:22;;;;;;;11.80;2.20;;;;;;;;;;12820724;23;20270;-77
2021/04/26 12:57:24;;;;;;;8.03;2.00;;;;;;;;;;12796796;23;20175;-79
2021/04/26 13:02:29;;;;;;;6.63;2.30;;;;;;;;;;12796291;23;20180;-80
2021/04/26 13:07:32;;;;;;;6.23;2.53;;;;;;;;;;12795141;23;20215;-80
2021/04/26 13:12:34;;;;;;;5.37;2.20;;;;;;;;;;12796074;23;20374;-79
2021/04/26 13:17:40;;;;;;;7.33;2.40;;;;;;;;;;12813855;23;20254;-79
2021/04/26 13:22:43;;;;;;;6.30;2.37;;;;;;;;;;12796430;23;20238;-80
2021/04/26 13:27:46;;;;;;;4.90;2.50;;;;;;;;;;12794112;23;20210;-78
2021/04/26 13:32:48;;;;;;;4.83;2.43;;;;;;;;;;12795632;23;20235;-78
2021/04/26 13:37:51;;;;;;;5.77;2.20;;;;;;;;;;12796767;23;20186;-79
2021/04/26 13:42:54;;;;;;;4.90;2.43;;;;;;;;;;12795155;23;20191;-80
2021/04/26 13:47:56;;;;;;;5.67;2.40;;;;;;;;;;12793160;23;20183;-78
2021/04/26 13:52:59;;;;;;;5.13;2.20;;;;;;;;;;12799647;23;20218;-78
2021/04/26 13:58:01;;;;;;;4.83;2.07;;;;;;;;;;12792356;23;20176;-79
2021/04/26 14:03:04;;;;;;;5.23;2.17;;;;;;;;;;12796185;23;20176;-79
2021/04/26 14:08:07;;;;;;;5.43;1.90;;;;;;;;;;12796308;23;20203;-79
2021/04/26 14:13:08;;;;;;;6.40;2.07;;;;;;;;;;12795032;23;20207;-79
2021/04/26 14:18:11;;;;;;;4.63;1.93;;;;;;;;;;12813436;23;20176;-79
2021/04/26 14:23:14;;;;;;;5.80;2.23;;;;;;;;;;12818738;23;20175;-80
2021/04/26 14:28:16;;;;;;;3.67;1.90;;;;;;;;;;12792833;23;20175;-79
2021/04/26 14:33:18;;;;;;;6.70;2.30;;;;;;;;;;12815237;23;20215;-79
2021/04/26 14:38:20;;;;;;;5.43;2.10;;;;;;;;;;12818999;23;20184;-80
2021/04/26 14:43:23;;;;;;;5.40;2.33;;;;;;;;;;12795549;23;20171;-80
2021/04/26 14:48:25;;;;;;;9.23;2.53;;;;;;;;;;12798249;23;20178;-80
2021/04/26 14:53:28;;;;;;;6.13;2.30;;;;;;;;;;12798008;23;20215;-79
2021/04/26 14:58:30;;;;;;;4.43;1.90;;;;;;;;;;12796567;23;20179;-80
2021/04/26 15:03:32;;;;;;;5.80;2.37;;;;;;;;;;12817605;23;20194;-79
2021/04/26 15:08:35;;;;;;;4.03;2.30;;;;;;;;;;12822066;23;20175;-79
2021/04/26 15:13:37;;;;;;;3.43;1.90;;;;;;;;;;12819259;23;20703;-80
2021/04/26 15:18:39;;;;;;;3.83;2.00;;;;;;;;;;12799396;23;20528;-80
2021/04/26 15:23:42;;;;;;;5.73;2.50;;;;;;;;;;12818760;23;20413;-79
2021/04/26 15:28:44;;;;;;;4.60;2.20;;;;;;;;;;12796701;23;20183;-78
2021/04/26 15:34:03;;;;;;;5.83;2.13;;;;;;;;;;12808081;23;20747;-79
2021/04/26 15:39:06;;;;;;;3.97;2.30;;;;;;;;;;12799394;23;20180;-80
2021/04/26 15:44:09;;;;;;;4.57;2.23;;;;;;;;;;12794132;23;20186;-80
2021/04/26 15:49:11;;;;;;;7.90;2.40;;;;;;;;;;12800549;23;21060;-79
2021/04/26 15:54:15;;;;;;;4.10;2.10;;;;;;;;;;12799252;23;20226;-79
2021/04/26 15:59:17;;;;;;;6.30;2.40;;;;;;;;;;12817072;23;20164;-79
2021/04/26 16:04:19;;;;;;;5.77;2.20;;;;;;;;;;12812823;23;20517;-80
2021/04/26 16:09:22;;;;;;;3.83;2.50;;;;;;;;;;12798851;23;20182;-80
2021/04/26 16:14:24;;;;;;;6.63;2.70;;;;;;;;;;12790466;23;20207;-78
2021/04/26 16:19:26;;;;;;;8.80;2.57;;;;;;;;;;12796600;23;20392;-79
2021/04/26 16:24:30;;;;;;;5.30;2.20;;;;;;;;;;12812479;23;20682;-81
2021/04/26 16:29:33;;;;;;;6.00;2.63;;;;;;;;;;12815515;23;20638;-78
2021/04/26 16:34:35;;;;;;;9.27;2.80;;;;;;;;;;12814903;23;20214;-77
2021/04/26 16:39:38;;;;;;;7.07;2.90;;;;;;;;;;12796976;23;20591;-77
2021/04/26 16:44:40;;;;;;;5.77;2.40;;;;;;;;;;12810095;23;20183;-78
2021/04/26 16:49:42;;;;;;;10.57;2.73;;;;;;;;;;12795406;23;20498;-77
2021/04/26 16:54:45;;;;;;;5.87;2.60;;;;;;;;;;12792077;23;20207;-77
2021/04/26 16:59:48;;;;;;;7.03;2.90;;;;;;;;;;12789363;23;20254;-78
2021/04/26 17:04:50;;;;;;;6.17;2.63;;;;;;;;;;12813830;23;20425;-77
2021/04/26 17:09:52;;;;;;;6.20;2.93;;;;;;;;;;12815566;23;20258;-77
2021/04/26 17:14:54;;;;;;;10.13;2.77;;;;;;;;;;12806558;23;20262;-78
2021/04/26 17:19:57;;;;;;;6.63;2.97;;;;;;;;;;12795620;23;20647;-78
2021/04/26 17:25:01;;;;;;;5.70;2.60;;;;;;;;;;12794006;23;20567;-79
2021/04/26 17:30:04;;;;;;;8.67;2.90;;;;;;;;;;12790760;23;20258;-78
2021/04/26 17:35:07;;;;;;;8.33;2.77;;;;;;;;;;12797547;23;20245;-79
2021/04/26 17:40:11;;;;;;;6.47;2.53;;;;;;;;;;12799733;23;20338;-78
2021/04/26 17:45:15;;;;;;;11.07;2.43;;;;;;;;;;12796836;23;20640;-78
2021/04/26 17:50:17;;;;;;;5.93;2.47;;;;;;;;;;12813744;23;20424;-79
2021/04/26 17:55:20;;;;;;;6.43;2.60;;;;;;;;;;12794113;23;20743;-78
2021/04/26 18:00:22;;;;;;;11.03;2.43;;;;;;;;;;12787021;23;20513;-80
2021/04/26 18:05:25;;;;;;;8.03;2.50;;;;;;;;;;12818058;23;20176;-79
2021/04/26 18:10:27;;;;;;;10.67;2.80;;;;;;;;;;12814141;23;20575;-79
2021/04/26 18:15:29;;;;;;;5.37;2.47;;;;;;;;;;12786676;23;20235;-79
2021/04/26 18:20:33;;;;;;;6.70;2.60;;;;;;;;;;12790714;23;20187;-79
2021/04/26 18:25:37;;;;;;;4.00;2.10;;;;;;;;;;12793736;23;20552;-79
2021/04/26 18:30:39;;;;;;;7.43;2.30;;;;;;;;;;12790469;23;20179;-78
2021/04/26 18:35:41;;;;;;;5.00;2.67;;;;;;;;;;12795922;23;20215;-79
2021/04/26 18:40:46;;;;;;;4.93;2.40;;;;;;;;;;12793053;23;20182;-79
2021/04/26 18:45:48;;;;;;;6.63;2.13;;;;;;;;;;12787550;23;20180;-79
2021/04/26 18:50:49;;;;;;;8.20;2.23;;;;;;;;;;12816031;23;20183;-79
2021/04/26 18:55:52;;;;;;;4.30;2.50;;;;;;;;;;12794269;23;20246;-79
2021/04/26 19:00:54;;;;;;;4.83;2.27;;;;;;;;;;12786392;23;20652;-79
2021/04/26 19:05:56;;;;;;;4.83;2.37;;;;;;;;;;12792281;23;20688;-80
2021/04/26 19:10:59;;;;;;;3.97;2.20;;;;;;;;;;12790732;23;20201;-80
2021/04/26 19:16:01;;;;;;;4.13;2.10;;;;;;;;;;12783890;23;20239;-80
2021/04/26 19:21:03;;;;;;;5.80;2.30;;;;;;;;;;12789032;23;20176;-80
2021/04/26 19:26:06;;;;;;;4.73;2.57;;;;;;;;;;12787766;23;20195;-80
2021/04/26 19:31:08;;;;;;;3.87;2.03;;;;;;;;;;12788808;23;20182;-80
2021/04/26 19:36:10;;;;;;;6.63;2.20;;;;;;;;;;12790246;23;20247;-80
2021/04/26 19:41:13;;;;;;;8.07;2.20;;;;;;;;;;12811137;23;20349;-79
2021/04/26 19:46:19;;;;;;;5.00;2.47;;;;;;;;;;12809560;23;20663;-78
2021/04/26 19:51:21;;;;;;;6.60;2.37;;;;;;;;;;12794422;23;20179;-80
2021/04/26 19:56:24;;;;;;;8.27;2.30;;;;;;;;;;12785002;23;20208;-80
2021/04/26 20:01:26;;;;;;;6.07;2.20;;;;;;;;;;12812021;23;20593;-79
2021/04/26 20:06:28;;;;;;;5.97;2.20;;;;;;;;;;12796762;23;20178;-80
2021/04/26 20:11:31;;;;;;;5.07;2.23;;;;;;;;;;12792644;23;20179;-80
2021/04/26 20:16:33;;;;;;;4.80;2.30;;;;;;;;;;12790277;23;20218;-80
2021/04/26 20:21:35;;;;;;;3.90;2.13;;;;;;;;;;12800367;23;20552;-80
2021/04/26 20:26:37;;;;;;;5.17;2.33;;;;;;;;;;12795155;23;20688;-79
2021/04/26 20:31:39;;;;;;;5.27;2.30;;;;;;;;;;12794692;23;20176;-79
2021/04/26 20:36:41;;;;;;;5.23;2.20;;;;;;;;;;12795238;23;20207;-78
2021/04/26 20:41:44;;;;;;;4.20;2.10;;;;;;;;;;12818520;23;20186;-79
2021/04/26 20:46:46;;;;;;;5.23;2.50;;;;;;;;;;12788577;23;20180;-79
2021/04/26 20:51:49;;;;;;;4.00;2.63;;;;;;;;;;12794530;23;20671;-79
2021/04/26 20:56:51;;;;;;;7.93;2.57;;;;;;;;;;12797781;23;20207;-80
2021/04/26 21:01:54;;;;;;;4.73;2.47;;;;;;;;;;12787291;23;20235;-79
2021/04/26 21:06:56;;;;;;;5.10;2.40;;;;;;;;;;12796968;23;20211;-80
2021/04/26 21:11:59;;;;;;;7.30;2.40;;;;;;;;;;12813965;23;20188;-80
2021/04/26 21:17:03;;;;;;;6.73;2.30;;;;;;;;;;12794024;23;20535;-79
2021/04/26 21:22:06;;;;;;;5.63;2.47;;;;;;;;;;12817065;23;20258;-80
2021/04/26 21:27:09;;;;;;;4.33;2.30;;;;;;;;;;12793971;23;20179;-79
2021/04/26 21:32:11;;;;;;;4.43;2.37;;;;;;;;;;12788994;23;20202;-79
2021/04/26 21:37:13;;;;;;;3.77;2.03;;;;;;;;;;12817808;23;20513;-80
2021/04/26 21:42:16;;;;;;;10.90;2.27;;;;;;;;;;12794557;23;20668;-79
2021/04/26 21:47:18;;;;;;;4.37;2.50;;;;;;;;;;12792075;23;20178;-79
2021/04/26 21:52:20;;;;;;;3.97;1.97;;;;;;;;;;12797395;23;20617;-81
2021/04/26 21:57:23;;;;;;;4.23;2.10;;;;;;;;;;12811895;23;20602;-80
2021/04/26 22:02:26;;;;;;;5.03;2.00;;;;;;;;;;12792756;23;20187;-79
2021/04/26 22:07:28;;;;;;;5.93;2.37;;;;;;;;;;12792570;23;20528;-79
2021/04/26 22:12:31;;;;;;;3.17;1.90;;;;;;;;;;12811502;23;20175;-80
2021/04/26 22:17:33;;;;;;;4.87;2.20;;;;;;;;;;12793705;23;20803;-80
2021/04/26 22:22:36;;;;;;;6.93;2.40;;;;;;;;;;12792884;23;20217;-79
2021/04/26 22:27:39;;;;;;;5.00;2.37;;;;;;;;;;12792111;23;20187;-78
2021/04/26 22:32:41;;;;;;;4.50;2.07;;;;;;;;;;12789799;23;20210;-79
2021/04/26 22:37:44;;;;;;;5.50;2.37;;;;;;;;;;12810666;23;20210;-79
2021/04/26 22:42:47;;;;;;;6.67;2.47;;;;;;;;;;12809808;23;20275;-78
2021/04/26 22:47:49;;;;;;;3.77;2.13;;;;;;;;;;12789076;23;20562;-78
2021/04/26 22:52:52;;;;;;;4.43;2.60;;;;;;;;;;12792904;23;20720;-79
2021/04/26 22:57:55;;;;;;;4.47;2.40;;;;;;;;;;12809552;23;20664;-79
2021/04/26 23:02:57;;;;;;;2.97;2.20;;;;;;;;;;12792163;23;20173;-79
2021/04/26 23:07:59;;;;;;;6.00;2.30;;;;;;;;;;12791858;23;20353;-78
2021/04/26 23:13:02;;;;;;;4.53;2.40;;;;;;;;;;12793674;23;20310;-85
2021/04/26 23:18:05;;;;;;;5.27;2.40;;;;;;;;;;12797949;23;20209;-85
2021/04/26 23:23:07;;;;;;;3.53;2.40;;;;;;;;;;12798215;23;20233;-86
2021/04/26 23:28:10;;;;;;;5.77;2.20;;;;;;;;;;12798948;23;20218;-87
2021/04/26 23:33:12;;;;;;;3.90;2.43;;;;;;;;;;12793225;23;20761;-86
2021/04/26 23:38:14;;;;;;;4.03;2.30;;;;;;;;;;12801231;23;20603;-87
2021/04/26 23:43:17;;;;;;;6.23;2.50;;;;;;;;;;12792793;23;20180;-85
2021/04/26 23:48:19;;;;;;;4.80;2.80;;;;;;;;;;12797783;23;20493;-86
2021/04/26 23:53:21;;;;;;;5.53;2.40;;;;;;;;;;12796600;23;20175;-85
2021/04/26 23:58:24;;;;;;;6.50;2.40;;;;;;;;;;12794428;23;20353;-85
